Daisinmaru No.11 — JK5352 — position and weather

sailwx.info

Track history (hours):
 
Tides and Currents Weather Stations Pressure Air Temp Water Temp Dewpoint Dewpoint Depression Visibility Wind Speed Wind Dir Waves Ship Positions

Daisinmaru No.11

Last reported at 2014-Aug-21 03:33 UTC. Time now 2014-Aug-21 18:03 UTC.
Position N 35°35' E 139°46'.

Length 52 m; draft 5.2 m.

Type: Cargo ship. MMSI: 431000667.

Date/timePositionNaut miles runAvg speedWind from/ knotsBaromVisibWave heightAir tempDewpointWater temp
2014-Aug-21 03:33N 35°35' E 139°46'0 0.0
2014-Aug-21 02:33N 35°35' E 139°46'0 0.0
2014-Aug-21 01:33N 35°35' E 139°46'0 0.0
2014-Aug-21 00:32N 35°35' E 139°46'0 0.0
2014-Aug-20 06:30N 35°35' E 139°46'0 0.0
2014-Aug-20 05:33N 35°35' E 139°46'0 0.0
2014-Aug-20 04:33N 35°35' E 139°46'0 0.0
2014-Aug-20 03:33N 35°35' E 139°46'0 0.0
2014-Aug-20 02:33N 35°35' E 139°46'4 4.2
2014-Aug-20 01:33N 35°33' E 139°51'9 8.9
2014-Aug-20 00:33N 35°27' E 139°60'0 0.0
2014-Aug-19 23:33N 35°27' E 139°60'0 0.0
2014-Aug-19 05:33N 35°27' E 139°60'0 0.0
2014-Aug-19 04:33N 35°27' E 139°60'0 0.0
2014-Aug-19 03:33N 35°27' E 139°60'6 6.0
2014-Aug-19 02:33N 35°30' E 139°53'8 8.3
2014-Aug-19 01:33N 35°29' E 139°43'0 0.0
2014-Aug-19 00:33N 35°29' E 139°43'0 0.0
2014-Aug-18 23:34N 35°29' E 139°43'1 1.0
2014-Aug-18 22:33N 35°30' E 139°44'9 9.1
2014-Aug-18 21:33N 35°29' E 139°55'  
Track history (hours):
 
Tides and Currents Weather Stations Pressure Air Temp Water Temp Dewpoint Dewpoint Depression Visibility Wind Speed Wind Dir Waves Ship Positions

Daisinmaru No.11

Last reported at 2014-Aug-21 03:33 UTC. Time now 2014-Aug-21 18:03 UTC.
Position N 35°35' E 139°46'.

Length 52 m; draft 5.2 m.

Type: Cargo ship. MMSI: 431000667.

Date/timePositionNaut miles runAvg speedWind from/ knotsBaromVisibWave heightAir tempDewpointWater temp
2014-Aug-21 03:33N 35°35' E 139°46'0 0.0
2014-Aug-21 02:33N 35°35' E 139°46'0 0.0
2014-Aug-21 01:33N 35°35' E 139°46'0 0.0
2014-Aug-21 00:32N 35°35' E 139°46'0 0.0
2014-Aug-20 06:30N 35°35' E 139°46'0 0.0
2014-Aug-20 05:33N 35°35' E 139°46'0 0.0
2014-Aug-20 04:33N 35°35' E 139°46'0 0.0
2014-Aug-20 03:33N 35°35' E 139°46'0 0.0
2014-Aug-20 02:33N 35°35' E 139°46'4 4.2
2014-Aug-20 01:33N 35°33' E 139°51'9 8.9
2014-Aug-20 00:33N 35°27' E 139°60'0 0.0
2014-Aug-19 23:33N 35°27' E 139°60'0 0.0
2014-Aug-19 05:33N 35°27' E 139°60'0 0.0
2014-Aug-19 04:33N 35°27' E 139°60'0 0.0
2014-Aug-19 03:33N 35°27' E 139°60'6 6.0
2014-Aug-19 02:33N 35°30' E 139°53'8 8.3
2014-Aug-19 01:33N 35°29' E 139°43'0 0.0
2014-Aug-19 00:33N 35°29' E 139°43'0 0.0
2014-Aug-18 23:34N 35°29' E 139°43'1 1.0
2014-Aug-18 22:33N 35°30' E 139°44'9 9.1
2014-Aug-18 21:33N 35°29' E 139°55'  

Dump ship's entire track history